Time;durP1;ratioP1;P1;durP2;ratioP2;P2;SDS_P1;SDS_P2;PMS_P1;PMS_P2;Temp;Humidity;BMP_temperature;BMP_pressure;BME280_temperature;BME280_humidity;BME280_pressure;Samples;Min_cycle;Max_cycle;Signal;HPM_P1;HPM_P2
2023/12/12 00:00:20;;;;;;;11.18;4.93;;;;;;;7.01;100.00;100681.53;5027358;28;20089;-70
2023/12/12 00:02:47;;;;;;;14.60;5.05;;;;;;;6.93;100.00;100681.69;5028660;28;20313;-70
2023/12/12 00:05:14;;;;;;;14.10;5.43;;;;;;;6.87;100.00;100680.94;5038947;28;20073;-70
2023/12/12 00:07:41;;;;;;;12.77;5.00;;;;;;;6.80;100.00;100681.03;5041704;28;20030;-70
2023/12/12 00:10:09;;;;;;;15.95;5.68;;;;;;;6.78;100.00;100684.56;5030137;28;20095;-70
2023/12/12 00:12:36;;;;;;;15.65;5.47;;;;;;;6.74;100.00;100682.88;5030593;28;20235;-70
2023/12/12 00:15:04;;;;;;;14.82;5.38;;;;;;;6.68;100.00;100692.59;5036066;28;20045;-70
2023/12/12 00:17:31;;;;;;;10.75;4.93;;;;;;;6.62;100.00;100689.22;5022452;28;20037;-70
2023/12/12 00:19:58;;;;;;;16.58;5.53;;;;;;;6.53;100.00;100690.22;5030579;28;20045;-70
2023/12/12 00:22:25;;;;;;;16.13;5.47;;;;;;;6.45;100.00;100694.72;5029706;28;20046;-70
2023/12/12 00:24:52;;;;;;;13.73;5.80;;;;;;;6.38;100.00;100691.31;5035931;28;20729;-70
2023/12/12 00:27:19;;;;;;;13.98;5.65;;;;;;;6.34;100.00;100689.66;5021662;28;20115;-70
2023/12/12 00:29:46;;;;;;;14.70;5.88;;;;;;;6.28;100.00;100687.97;5030457;28;20046;-70
2023/12/12 00:32:13;;;;;;;16.73;5.53;;;;;;;6.22;100.00;100688.94;5034960;28;20120;-70
2023/12/12 00:34:40;;;;;;;12.90;6.10;;;;;;;6.19;100.00;100701.22;5012259;28;20071;-70
2023/12/12 00:37:07;;;;;;;16.92;5.60;;;;;;;6.13;100.00;100696.94;5028817;28;20255;-70
2023/12/12 00:39:40;;;;;;;12.68;5.47;;;;;;;6.10;100.00;100699.59;5030182;28;21054;-70
2023/12/12 00:42:07;;;;;;;16.70;5.60;;;;;;;6.05;100.00;100688.31;5028939;28;20123;-71
2023/12/12 00:44:35;;;;;;;14.68;5.40;;;;;;;6.00;100.00;100692.75;5012886;28;20072;-70
2023/12/12 00:47:04;;;;;;;16.42;5.22;;;;;;;5.94;100.00;100685.81;5028777;28;20123;-70
2023/12/12 00:49:31;;;;;;;11.88;5.35;;;;;;;5.89;100.00;100696.34;5029050;28;20041;-70
2023/12/12 00:51:58;;;;;;;14.82;5.63;;;;;;;5.88;100.00;100696.38;5028960;28;20054;-70
2023/12/12 00:54:26;;;;;;;14.10;5.43;;;;;;;5.85;100.00;100693.78;5028287;28;20065;-70
2023/12/12 00:56:53;;;;;;;14.43;5.80;;;;;;;5.83;100.00;100690.31;5030829;28;20567;-71
2023/12/12 00:59:20;;;;;;;12.57;5.75;;;;;;;5.81;100.00;100695.56;5029751;28;20041;-71
2023/12/12 01:01:47;;;;;;;11.43;4.57;;;;;;;5.79;100.00;100696.50;5027924;28;20037;-70
2023/12/12 01:04:14;;;;;;;14.80;4.90;;;;;;;5.77;100.00;100691.25;5028931;28;20045;-70
2023/12/12 01:06:41;;;;;;;16.38;5.88;;;;;;;5.77;100.00;100687.78;5039979;28;20045;-71
2023/12/12 01:09:08;;;;;;;16.75;5.18;;;;;;;5.74;100.00;100683.47;5026585;28;20055;-71
2023/12/12 01:11:35;;;;;;;15.20;4.88;;;;;;;5.73;100.00;100684.34;5026861;28;20508;-71
2023/12/12 01:14:02;;;;;;;14.25;5.25;;;;;;;5.71;100.00;100683.50;5026336;28;20046;-71
2023/12/12 01:16:29;;;;;;;16.73;5.50;;;;;;;5.69;100.00;100688.75;5027206;28;20052;-71
2023/12/12 01:18:56;;;;;;;16.27;5.38;;;;;;;5.66;100.00;100685.28;5028052;28;20060;-71
2023/12/12 01:21:24;;;;;;;14.93;4.75;;;;;;;5.63;100.00;100690.59;5028381;28;20128;-71
2023/12/12 01:23:53;;;;;;;19.52;5.57;;;;;;;5.59;100.00;100677.53;5017568;28;20042;-71
2023/12/12 01:26:23;;;;;;;16.60;4.88;;;;;;;5.56;100.00;100680.19;5009673;28;20070;-71
2023/12/12 01:28:50;;;;;;;18.70;4.90;;;;;;;5.53;100.00;100681.97;5041767;28;20525;-70
2023/12/12 01:31:18;;;;;;;12.25;4.78;;;;;;;5.50;100.00;100682.00;5028320;28;20117;-70
2023/12/12 01:33:48;;;;;;;19.35;5.60;;;;;;;5.49;100.00;100681.13;5031079;28;20505;-70
2023/12/12 01:36:16;;;;;;;11.65;4.50;;;;;;;5.47;100.00;100677.66;5011673;28;20783;-70
2023/12/12 01:38:44;;;;;;;16.80;4.95;;;;;;;5.45;100.00;100674.19;5026389;28;20052;-71
2023/12/12 01:41:12;;;;;;;15.63;5.60;;;;;;;5.43;100.00;100669.00;5027019;28;20490;-70
2023/12/12 01:43:39;;;;;;;14.82;5.10;;;;;;;5.41;100.00;100662.06;5028344;28;20841;-69
2023/12/12 01:46:09;;;;;;;11.02;4.80;;;;;;;5.38;100.00;100656.88;5044069;28;20038;-71
2023/12/12 01:48:36;;;;;;;21.55;5.90;;;;;;;5.31;100.00;100653.44;5028946;28;20572;-71
2023/12/12 01:51:05;;;;;;;27.85;5.82;;;;;;;5.27;100.00;100657.84;5028747;28;20049;-71
2023/12/12 01:53:41;;;;;;;18.45;5.50;;;;;;;5.24;100.00;100657.03;5026808;28;20069;-71
2023/12/12 01:56:09;;;;;;;16.30;5.22;;;;;;;5.18;100.00;100647.50;5027828;28;20041;-71
2023/12/12 01:58:40;;;;;;;14.63;5.50;;;;;;;5.13;100.00;100655.41;5028530;28;20037;-71
2023/12/12 02:01:08;;;;;;;15.32;5.43;;;;;;;5.08;100.00;100638.91;5027982;28;20049;-70
2023/12/12 02:03:37;;;;;;;18.77;5.63;;;;;;;5.03;100.00;100648.53;5028670;28;20100;-70
2023/12/12 02:06:06;;;;;;;21.17;5.20;;;;;;;4.98;100.00;100642.50;5025369;28;20501;-70
2023/12/12 02:08:33;;;;;;;16.13;5.10;;;;;;;4.94;100.00;100649.47;5027114;28;20064;-69
2023/12/12 02:11:01;;;;;;;17.38;6.47;;;;;;;4.91;100.00;100648.66;5027941;28;20049;-72
2023/12/12 02:13:28;;;;;;;23.38;6.20;;;;;;;4.88;100.00;100649.56;5031092;28;20051;-70
2023/12/12 02:15:55;;;;;;;13.73;5.28;;;;;;;4.86;100.00;100653.94;5030255;28;20041;-70
2023/12/12 02:18:22;;;;;;;20.48;5.90;;;;;;;4.85;100.00;100652.19;5027638;28;20041;-70
2023/12/12 02:20:49;;;;;;;14.98;5.82;;;;;;;4.84;100.00;100653.06;5027876;28;20041;-70
2023/12/12 02:23:16;;;;;;;19.48;6.20;;;;;;;4.84;100.00;100654.84;5026157;28;20042;-70
2023/12/12 02:25:43;;;;;;;22.67;6.30;;;;;;;4.84;100.00;100657.44;5026601;28;20045;-69
2023/12/12 02:28:12;;;;;;;21.15;6.65;;;;;;;4.84;100.00;100665.28;5026488;28;20045;-70
2023/12/12 02:30:42;;;;;;;20.75;6.35;;;;;;;4.82;100.00;100673.13;5027410;28;20041;-70
2023/12/12 02:33:09;;;;;;;19.13;6.18;;;;;;;4.79;100.00;100663.56;5041214;28;20152;-70
2023/12/12 02:35:37;;;;;;;24.35;6.40;;;;;;;4.78;100.00;100664.44;5028166;28;20125;-69
2023/12/12 02:38:04;;;;;;;21.00;6.03;;;;;;;4.77;100.00;100656.63;5041436;28;20041;-72
2023/12/12 02:40:31;;;;;;;19.60;6.22;;;;;;;4.75;100.00;100655.78;5041647;28;20152;-72
2023/12/12 02:42:59;;;;;;;19.95;6.38;;;;;;;4.73;100.00;100650.56;5038888;28;20073;-72
2023/12/12 02:45:26;;;;;;;17.60;6.60;;;;;;;4.71;100.00;100659.31;5027607;28;20128;-72
2023/12/12 02:47:53;;;;;;;21.02;6.60;;;;;;;4.69;100.00;100659.31;5022611;28;20033;-72
2023/12/12 02:50:20;;;;;;;25.30;7.28;;;;;;;4.66;100.00;100654.13;5026342;28;20045;-72
2023/12/12 02:52:51;;;;;;;20.77;6.15;;;;;;;4.65;100.00;100665.44;5025636;28;20524;-72
2023/12/12 02:55:18;;;;;;;18.65;6.93;;;;;;;4.63;100.00;100659.38;5026347;28;20049;-72
2023/12/12 02:57:45;;;;;;;30.58;7.72;;;;;;;4.61;100.00;100659.38;5042807;28;20044;-72
2023/12/12 03:00:13;;;;;;;18.75;7.50;;;;;;;4.58;100.00;100656.78;5026172;28;20505;-72
2023/12/12 03:02:40;;;;;;;27.17;7.43;;;;;;;4.58;100.00;100656.78;5025529;28;20420;-72
2023/12/12 03:05:07;;;;;;;23.48;7.07;;;;;;;4.56;100.00;100661.16;5045482;28;20041;-72
2023/12/12 03:07:35;;;;;;;17.98;6.82;;;;;;;4.56;100.00;100657.69;5027674;28;20116;-72
2023/12/12 03:10:03;;;;;;;19.90;6.97;;;;;;;4.55;100.00;100650.75;5025559;28;20783;-72
2023/12/12 03:12:31;;;;;;;21.05;7.30;;;;;;;4.56;100.00;100648.09;5026080;28;20046;-72
2023/12/12 03:14:58;;;;;;;19.77;7.15;;;;;;;4.58;100.00;100648.13;5026016;28;20552;-72
2023/12/12 03:17:25;;;;;;;19.80;6.80;;;;;;;4.58;100.00;100650.72;5026658;28;20207;-72
2023/12/12 03:19:52;;;;;;;20.98;6.57;;;;;;;4.57;100.00;100651.59;5025686;28;20080;-72
2023/12/12 03:22:19;;;;;;;19.60;6.68;;;;;;;4.57;100.00;100644.63;5026114;28;20055;-72
2023/12/12 03:24:46;;;;;;;18.63;7.28;;;;;;;4.63;100.00;100648.91;5027028;28;20148;-72
2023/12/12 03:27:13;;;;;;;19.92;7.40;;;;;;;4.68;100.00;100654.09;5041428;28;20132;-72
2023/12/12 03:29:40;;;;;;;18.77;7.07;;;;;;;4.70;100.00;100642.75;5019722;28;20046;-72
2023/12/12 03:32:07;;;;;;;19.58;7.53;;;;;;;4.75;100.00;100645.31;5021766;28;20544;-72
2023/12/12 03:34:34;;;;;;;25.60;7.30;;;;;;;4.78;100.00;100640.94;5027482;28;20053;-72
2023/12/12 03:37:01;;;;;;;28.48;8.05;;;;;;;4.89;100.00;100647.81;5028729;28;20596;-72
2023/12/12 03:39:28;;;;;;;23.38;7.45;;;;;;;4.99;100.00;100636.38;5024984;28;20132;-73
2023/12/12 03:41:55;;;;;;;22.10;7.68;;;;;;;5.09;100.00;100626.69;5033445;28;20049;-72
2023/12/12 03:44:22;;;;;;;25.35;8.50;;;;;;;5.17;100.00;100621.41;5030873;28;20046;-71
2023/12/12 03:46:49;;;;;;;26.27;7.80;;;;;;;5.20;100.00;100616.13;5016141;28;20099;-71
2023/12/12 03:49:16;;;;;;;26.45;7.53;;;;;;;5.23;100.00;100611.75;5042079;28;20041;-72
2023/12/12 03:51:43;;;;;;;24.80;7.38;;;;;;;5.23;100.00;100610.88;5022533;28;20037;-71
2023/12/12 03:54:10;;;;;;;27.52;8.57;;;;;;;5.22;100.00;100615.25;5027885;28;20049;-72
2023/12/12 03:56:37;;;;;;;31.15;7.72;;;;;;;5.24;100.00;100609.97;5025782;28;20117;-72
2023/12/12 03:59:04;;;;;;;25.38;8.07;;;;;;;5.25;100.00;100609.09;5026125;28;20056;-72
2023/12/12 04:01:31;;;;;;;34.97;7.70;;;;;;;5.27;100.00;100615.19;5039537;28;20041;-72
2023/12/12 04:03:59;;;;;;;37.55;8.15;;;;;;;5.32;100.00;100615.13;5030531;28;20453;-73
2023/12/12 04:06:26;;;;;;;22.88;6.82;;;;;;;5.37;100.00;100616.81;5030751;28;20056;-73
2023/12/12 04:08:53;;;;;;;25.75;7.40;;;;;;;5.44;100.00;100609.75;5029012;28;20103;-72
2023/12/12 04:11:20;;;;;;;31.63;7.45;;;;;;;5.50;100.00;100607.03;5030161;28;20045;-72
2023/12/12 04:13:47;;;;;;;30.98;8.50;;;;;;;5.54;100.00;100594.78;5036818;28;20136;-72
2023/12/12 04:16:14;;;;;;;31.10;7.95;;;;;;;5.59;100.00;100596.47;5031380;28;20120;-71
2023/12/12 04:18:41;;;;;;;28.85;6.82;;;;;;;5.63;100.00;100596.44;5029642;28;20523;-71
2023/12/12 04:21:08;;;;;;;29.05;6.65;;;;;;;5.62;100.00;100592.94;5027540;28;20072;-71
2023/12/12 04:23:38;;;;;;;40.65;7.25;;;;;;;5.59;100.00;100595.59;5060983;28;20045;-71
2023/12/12 04:26:05;;;;;;;35.60;7.53;;;;;;;5.57;100.00;100597.38;5028224;28;20042;-71
2023/12/12 04:28:32;;;;;;;30.52;7.60;;;;;;;5.56;100.00;100595.63;5027330;28;20046;-71
2023/12/12 04:30:59;;;;;;;30.40;7.10;;;;;;;5.54;100.00;100595.66;5026604;28;20049;-72
2023/12/12 04:33:26;;;;;;;31.65;7.28;;;;;;;5.52;100.00;100594.81;5028249;28;20504;-71
2023/12/12 04:35:53;;;;;;;25.85;7.10;;;;;;;5.54;100.00;100600.03;5026725;28;20061;-71
2023/12/12 04:38:20;;;;;;;37.00;7.80;;;;;;;5.56;100.00;100596.50;5015495;28;20041;-71
2023/12/12 04:40:48;;;;;;;32.67;7.10;;;;;;;5.59;100.00;100590.38;5024301;28;20124;-71
2023/12/12 04:43:15;;;;;;;42.28;8.70;;;;;;;5.62;100.00;100597.31;5028480;28;20049;-71
2023/12/12 04:45:42;;;;;;;37.55;7.20;;;;;;;5.65;100.00;100592.00;5029710;28;20053;-72
2023/12/12 04:48:09;;;;;;;39.35;8.48;;;;;;;5.64;100.00;100585.94;5028995;28;20092;-72
2023/12/12 04:50:36;;;;;;;40.22;8.18;;;;;;;5.63;100.00;100581.59;5027946;28;20040;-72
2023/12/12 04:53:03;;;;;;;37.75;7.70;;;;;;;5.62;100.00;100573.78;5027384;28;20064;-71
2023/12/12 04:55:30;;;;;;;31.45;7.55;;;;;;;5.58;100.00;100578.19;5016192;28;20094;-72
2023/12/12 04:57:57;;;;;;;36.13;7.43;;;;;;;5.51;100.00;100576.53;5009456;28;20074;-72
2023/12/12 05:00:24;;;;;;;39.42;8.60;;;;;;;5.44;100.00;100578.38;5012406;28;20526;-72
2023/12/12 05:02:51;;;;;;;37.15;7.68;;;;;;;5.37;100.00;100580.19;5025593;28;20049;-72
2023/12/12 05:05:18;;;;;;;42.58;8.60;;;;;;;5.29;100.00;100572.44;5034486;28;20096;-72
2023/12/12 05:07:45;;;;;;;41.25;8.90;;;;;;;5.20;100.00;100562.13;5028787;28;20041;-72
2023/12/12 05:10:13;;;;;;;32.55;7.45;;;;;;;5.13;100.00;100552.63;5026666;28;20073;-72
2023/12/12 05:12:40;;;;;;;41.08;9.20;;;;;;;5.07;100.00;100563.13;5025337;28;20187;-71
2023/12/12 05:15:08;;;;;;;34.45;7.47;;;;;;;5.02;100.00;100552.75;5036755;28;20124;-71
2023/12/12 05:17:35;;;;;;;53.42;9.15;;;;;;;4.92;100.00;100552.00;5053672;28;20095;-71
2023/12/12 05:20:05;;;;;;;34.65;7.75;;;;;;;4.87;100.00;100545.09;5027848;28;20049;-71
2023/12/12 05:22:34;;;;;;;48.67;8.70;;;;;;;4.82;100.00;100539.94;5025416;28;20072;-71
2023/12/12 05:25:01;;;;;;;30.70;8.07;;;;;;;4.84;100.00;100545.13;5027686;28;20069;-71
2023/12/12 05:27:28;;;;;;;36.40;9.45;;;;;;;4.87;100.00;100545.09;5028312;28;20080;-71
2023/12/12 05:29:56;;;;;;;40.17;8.25;;;;;;;4.91;100.00;100533.72;5027757;28;20132;-71
2023/12/12 05:32:23;;;;;;;38.15;8.50;;;;;;;4.94;100.00;100537.16;5020442;28;20144;-71
2023/12/12 05:34:50;;;;;;;43.10;9.35;;;;;;;4.99;100.00;100539.69;5026990;28;20051;-71
2023/12/12 05:37:17;;;;;;;41.58;9.35;;;;;;;5.06;100.00;100532.66;5029488;28;20052;-71
2023/12/12 05:39:49;;;;;;;43.85;9.25;;;;;;;5.11;100.00;100531.72;5026771;28;20497;-72
2023/12/12 05:42:23;;;;;;;43.13;10.82;;;;;;;5.19;100.00;100529.03;5027218;28;20124;-67
2023/12/12 05:44:50;;;;;;;61.80;10.75;;;;;;;5.28;100.00;100526.28;5027811;28;20139;-73
2023/12/12 05:47:17;;;;;;;55.40;10.77;;;;;;;5.38;100.00;100531.38;5027591;28;20045;-68
2023/12/12 05:49:44;;;;;;;51.25;10.20;;;;;;;5.46;100.00;100534.75;5026972;28;20522;-68
2023/12/12 05:52:11;;;;;;;50.67;10.32;;;;;;;5.54;100.00;100527.69;5024751;28;20048;-67
2023/12/12 05:54:42;;;;;;;48.85;9.90;;;;;;;5.67;100.00;100530.09;5026159;28;20046;-68
2023/12/12 05:57:09;;;;;;;38.72;9.25;;;;;;;5.86;100.00;100541.16;5024978;28;20072;-68
2023/12/12 05:59:36;;;;;;;49.53;9.98;;;;;;;6.09;100.00;100537.34;5027040;28;20037;-68
2023/12/12 06:02:04;;;;;;;52.90;10.25;;;;;;;6.17;100.00;100536.31;5030134;28;20046;-69
2023/12/12 06:04:31;;;;;;;33.75;7.05;;;;;;;6.22;100.00;100526.63;5028172;28;20037;-68
2023/12/12 06:06:58;;;;;;;43.03;9.23;;;;;;;6.31;100.00;100533.44;5027968;28;20644;-68
2023/12/12 06:09:25;;;;;;;35.35;7.20;;;;;;;6.38;100.00;100531.59;5024810;28;20037;-68
2023/12/12 06:11:52;;;;;;;34.33;8.18;;;;;;;6.45;100.00;100530.59;5026324;28;20041;-68
2023/12/12 06:14:19;;;;;;;34.22;9.15;;;;;;;6.60;100.00;100531.19;5024690;28;20049;-67
2023/12/12 06:16:48;;;;;;;35.60;8.02;;;;;;;6.70;100.00;100524.88;5024904;28;20041;-67
2023/12/12 06:19:16;;;;;;;34.65;8.18;;;;;;;6.81;100.00;100533.41;5024920;28;20038;-69
2023/12/12 06:21:43;;;;;;;30.35;7.68;;;;;;;6.90;100.00;100527.13;5026349;28;20045;-68
2023/12/12 06:24:10;;;;;;;35.10;7.65;;;;;;;6.93;100.00;100524.44;5026687;28;20073;-68
2023/12/12 06:26:37;;;;;;;36.78;8.23;;;;;;;6.95;100.00;100529.66;5025264;28;20044;-68
2023/12/12 06:29:07;;;;;;;31.98;8.00;;;;;;;6.94;100.00;100527.94;5024210;28;20748;-71
2023/12/12 06:31:35;;;;;;;31.60;7.53;;;;;;;6.90;100.00;100524.50;5026429;28;20064;-71
2023/12/12 06:34:03;;;;;;;35.25;7.63;;;;;;;6.83;100.00;100520.25;5025554;28;20045;-71
2023/12/12 06:36:35;;;;;;;34.33;7.00;;;;;;;6.74;100.00;100507.34;5026721;28;20045;-71
2023/12/12 06:39:03;;;;;;;38.38;8.40;;;;;;;6.70;100.00;100505.69;5026703;28;20038;-71
2023/12/12 06:41:30;;;;;;;40.97;15.85;;;;;;;6.64;100.00;100504.06;5025729;28;20468;-71
2023/12/12 06:43:57;;;;;;;47.63;16.63;;;;;;;6.61;100.00;100509.34;5025680;28;20042;-71
2023/12/12 06:46:24;;;;;;;40.42;11.88;;;;;;;6.59;100.00;100508.50;5026951;28;20060;-71
2023/12/12 06:48:51;;;;;;;38.45;9.73;;;;;;;6.58;100.00;100506.78;5025688;28;20160;-71
2023/12/12 06:51:18;;;;;;;58.25;31.35;;;;;;;6.56;100.00;100506.81;5027117;28;20041;-67
2023/12/12 06:53:45;;;;;;;42.97;11.55;;;;;;;6.55;100.00;100505.09;5027693;28;20133;-71
2023/12/12 06:56:12;;;;;;;55.85;29.13;;;;;;;6.55;100.00;100501.63;5040935;28;20058;-71
2023/12/12 06:58:39;;;;;;;73.40;37.03;;;;;;;6.55;100.00;100499.84;5029666;28;20037;-71
2023/12/12 07:01:08;;;;;;;65.93;28.70;;;;;;;6.55;100.00;100497.22;5025412;28;20041;-71
2023/12/12 07:03:36;;;;;;;62.03;32.40;;;;;;;6.57;100.00;100498.06;5041657;28;20046;-71
2023/12/12 07:06:08;;;;;;;38.90;9.23;;;;;;;6.55;100.00;100483.28;5039581;28;20192;-71
2023/12/12 07:08:36;;;;;;;42.95;12.25;;;;;;;6.55;100.00;100484.13;5026241;28;20030;-71
2023/12/12 07:11:04;;;;;;;74.10;35.50;;;;;;;6.54;100.00;100490.28;5034910;28;20128;-72
2023/12/12 07:13:31;;;;;;;153.10;73.43;;;;;;;6.50;100.00;100479.00;5030197;28;20049;-71
2023/12/12 07:15:58;;;;;;;69.30;33.20;;;;;;;6.46;100.00;100481.69;5030278;28;20079;-71
2023/12/12 07:18:25;;;;;;;53.17;22.05;;;;;;;6.39;100.00;100474.88;5030403;28;20052;-71
2023/12/12 07:20:53;;;;;;;78.22;33.00;;;;;;;6.34;100.00;100475.78;5029957;28;20045;-71
2023/12/12 07:23:20;;;;;;;113.93;53.10;;;;;;;6.27;100.00;100476.81;5030439;28;20045;-71
2023/12/12 07:25:47;;;;;;;66.40;28.08;;;;;;;6.22;100.00;100474.28;5031897;28;20045;-71
2023/12/12 07:28:14;;;;;;;36.40;9.90;;;;;;;6.17;100.00;100470.88;5028964;28;20409;-72
2023/12/12 07:30:42;;;;;;;50.65;17.10;;;;;;;6.11;100.00;100470.97;5041090;28;20041;-71
2023/12/12 07:33:09;;;;;;;41.28;11.88;;;;;;;6.09;100.00;100474.53;5047302;28;20044;-71
2023/12/12 07:35:36;;;;;;;39.10;9.82;;;;;;;6.06;100.00;100468.44;5031219;28;20073;-71
2023/12/12 07:38:03;;;;;;;40.78;13.45;;;;;;;6.08;100.00;100464.94;5031216;28;20103;-71
2023/12/12 07:40:30;;;;;;;36.95;10.05;;;;;;;6.10;100.00;100464.03;5030694;28;20037;-71
2023/12/12 07:42:58;;;;;;;43.65;10.10;;;;;;;6.13;100.00;100463.97;5029824;28;20080;-71
2023/12/12 07:45:25;;;;;;;38.08;9.15;;;;;;;6.12;100.00;100454.41;5032198;28;20051;-71
2023/12/12 07:47:52;;;;;;;42.22;10.48;;;;;;;6.12;100.00;100454.41;5046146;28;20128;-71
2023/12/12 07:50:20;;;;;;;43.47;9.20;;;;;;;6.11;100.00;100462.25;5039018;28;20143;-71
2023/12/12 07:52:48;;;;;;;52.10;18.10;;;;;;;6.12;100.00;100450.91;5036280;28;20033;-71
2023/12/12 07:55:15;;;;;;;118.68;55.60;;;;;;;6.17;100.00;100454.31;5045479;28;20557;-71
2023/12/12 07:57:43;;;;;;;53.83;20.38;;;;;;;6.25;100.00;100451.56;5029849;28;20111;-71
2023/12/12 08:00:11;;;;;;;67.28;26.63;;;;;;;6.32;100.00;100440.91;5030588;28;20034;-71
2023/12/12 08:02:38;;;;;;;43.25;13.63;;;;;;;6.35;100.00;100446.09;5030517;28;20041;-71
2023/12/12 08:05:06;;;;;;;33.13;10.05;;;;;;;6.39;100.00;100443.44;5036822;28;20068;-71
2023/12/12 08:07:33;;;;;;;42.05;10.20;;;;;;;6.41;100.00;100442.50;5041697;28;20037;-71
2023/12/12 08:10:00;;;;;;;38.17;9.00;;;;;;;6.45;100.00;100432.84;5032614;28;20037;-71
2023/12/12 08:12:27;;;;;;;35.13;9.32;;;;;;;6.45;100.00;100427.59;5037553;28;20128;-71
2023/12/12 08:14:55;;;;;;;39.42;8.60;;;;;;;6.47;100.00;100425.81;5046505;28;20151;-71
2023/12/12 08:17:23;;;;;;;31.13;8.90;;;;;;;6.50;100.00;100423.16;5028327;28;20068;-71
2023/12/12 08:19:50;;;;;;;36.78;8.75;;;;;;;6.58;100.00;100421.22;5030793;28;20099;-71
2023/12/12 08:22:17;;;;;;;34.22;8.75;;;;;;;6.64;100.00;100413.22;5028893;28;20045;-71
2023/12/12 08:24:45;;;;;;;38.40;9.50;;;;;;;6.70;100.00;100407.00;5031192;28;20376;-71
2023/12/12 08:27:13;;;;;;;40.97;14.93;;;;;;;6.78;100.00;100402.47;5029229;28;20249;-71
2023/12/12 08:29:40;;;;;;;30.77;8.30;;;;;;;6.84;100.00;100398.84;5046207;28;20068;-71
2023/12/12 08:32:07;;;;;;;41.95;20.13;;;;;;;6.92;100.00;100403.91;5034545;28;20045;-71
2023/12/12 08:34:34;;;;;;;54.65;31.25;;;;;;;7.01;100.00;100411.56;5029079;28;20045;-71
2023/12/12 08:37:01;;;;;;;61.95;39.47;;;;;;;7.10;100.00;100410.53;5045197;28;20125;-71
2023/12/12 08:39:28;;;;;;;42.00;16.85;;;;;;;7.15;100.00;100412.13;5029719;28;20038;-71
2023/12/12 08:41:55;;;;;;;70.35;43.08;;;;;;;7.21;100.00;100402.38;5035032;28;20619;-71
2023/12/12 08:44:23;;;;;;;24.08;7.65;;;;;;;7.29;100.00;100405.69;5030060;28;20082;-71
2023/12/12 08:46:50;;;;;;;37.47;13.23;;;;;;;7.33;100.00;100404.72;5030031;28;20143;-71
2023/12/12 08:49:18;;;;;;;29.60;7.35;;;;;;;7.38;100.00;100397.59;5030043;28;20069;-71
2023/12/12 08:51:46;;;;;;;35.78;8.23;;;;;;;7.41;100.00;100394.91;5032643;28;20240;-71
2023/12/12 08:54:13;;;;;;;27.95;6.78;;;;;;;7.49;100.00;100393.84;5029149;28;20517;-71
2023/12/12 08:56:41;;;;;;;27.02;6.20;;;;;;;7.54;100.00;100389.38;5033471;28;20413;-71
2023/12/12 08:59:08;;;;;;;32.55;6.70;;;;;;;7.59;100.00;100388.34;5029446;28;20037;-72
2023/12/12 09:01:35;;;;;;;29.83;5.97;;;;;;;7.65;100.00;100378.59;5028104;28;20045;-71
2023/12/12 09:04:02;;;;;;;25.65;5.45;;;;;;;7.71;100.00;100384.56;5029278;28;20045;-72
2023/12/12 09:06:30;;;;;;;24.00;5.13;;;;;;;7.76;100.00;100390.56;5038878;28;20524;-71
2023/12/12 09:08:57;;;;;;;31.10;8.88;;;;;;;7.83;100.00;100382.50;5023106;28;20401;-71
2023/12/12 09:11:24;;;;;;;25.08;6.45;;;;;;;7.91;100.00;100391.03;5028305;28;20669;-71
2023/12/12 09:13:51;;;;;;;27.30;8.40;;;;;;;8.00;100.00;100376.81;5028471;28;20559;-71
2023/12/12 09:16:18;;;;;;;28.27;5.47;;;;;;;8.11;100.00;100376.53;5042850;28;20036;-71
2023/12/12 09:18:45;;;;;;;27.40;5.80;;;;;;;8.17;100.00;100379.84;5050396;28;20049;-72
2023/12/12 09:21:12;;;;;;;34.75;5.95;;;;;;;8.25;100.00;100374.38;5065168;28;20128;-71
2023/12/12 09:23:40;;;;;;;25.60;5.10;;;;;;;8.28;100.00;100362.91;5031460;28;20037;-72
2023/12/12 09:26:14;;;;;;;25.42;5.00;;;;;;;8.30;100.00;100361.13;5035415;28;20041;-71
2023/12/12 09:28:42;;;;;;;22.70;5.68;;;;;;;8.32;100.00;100359.31;5043720;28;20065;-71
2023/12/12 09:31:11;;;;;;;19.73;4.72;;;;;;;8.32;100.00;100354.91;5029226;28;20634;-73
2023/12/12 09:33:38;;;;;;;23.08;4.95;;;;;;;8.34;100.00;100357.50;5027472;28;20041;-71
2023/12/12 09:36:06;;;;;;;24.52;5.28;;;;;;;8.36;100.00;100346.06;5039586;28;20045;-71
2023/12/12 09:38:33;;;;;;;22.40;5.35;;;;;;;8.39;100.00;100343.31;5027796;28;20525;-71
2023/12/12 09:41:01;;;;;;;18.42;5.03;;;;;;;8.49;100.00;100338.69;5024588;28;20044;-71
2023/12/12 09:43:29;;;;;;;19.10;4.82;;;;;;;8.60;100.00;100327.00;5037373;28;20056;-71
2023/12/12 09:45:57;;;;;;;30.55;7.03;;;;;;;8.74;100.00;100323.94;5028518;28;20464;-72
2023/12/12 09:48:25;;;;;;;20.90;5.00;;;;;;;8.93;100.00;100317.22;5037113;28;20089;-72
2023/12/12 09:50:56;;;;;;;21.02;5.68;;;;;;;9.03;100.00;100309.91;5038316;28;20045;-72
2023/12/12 09:53:25;;;;;;;25.77;5.90;;;;;;;9.11;100.00;100293.84;5030663;28;20271;-71
2023/12/12 09:55:52;;;;;;;27.77;10.15;;;;;;;9.20;100.00;100300.59;5031571;28;20164;-71
2023/12/12 09:58:19;;;;;;;23.50;7.18;;;;;;;9.28;100.00;100299.44;5038359;28;20689;-72
2023/12/12 10:00:46;;;;;;;22.92;6.47;;;;;;;9.35;100.00;100307.09;5027012;28;20751;-71
2023/12/12 10:03:14;;;;;;;27.92;6.82;;;;;;;9.38;100.00;100292.06;5042031;28;20083;-71
2023/12/12 10:05:52;;;;;;;25.08;6.43;;;;;;;9.42;100.00;100285.81;5040389;28;20114;-71
2023/12/12 10:08:22;;;;;;;18.05;5.68;;;;;;;9.46;100.00;100291.81;5028341;28;20053;-71
2023/12/12 10:10:52;;;;;;;18.92;6.05;;;;;;;9.47;100.00;100294.38;5028773;28;20038;-71
2023/12/12 10:13:20;;;;;;;27.63;7.35;;;;;;;9.49;100.00;100289.09;5059046;28;20042;-72
2023/12/12 10:15:47;;;;;;;24.02;6.90;;;;;;;9.50;100.00;100279.41;5027150;28;20095;-71
2023/12/12 10:18:14;;;;;;;20.55;6.15;;;;;;;9.51;100.00;100281.13;5028929;28;20054;-71
2023/12/12 10:20:41;;;;;;;21.42;4.63;;;;;;;9.56;100.00;100271.31;5033727;28;20071;-71
2023/12/12 10:23:08;;;;;;;19.15;4.70;;;;;;;9.57;100.00;100263.34;5028742;28;20057;-72
2023/12/12 10:25:35;;;;;;;16.13;4.13;;;;;;;9.63;100.00;100252.59;5037067;28;20045;-71
2023/12/12 10:28:03;;;;;;;15.98;4.00;;;;;;;9.67;100.00;100248.09;5027740;28;20045;-71
2023/12/12 10:30:30;;;;;;;19.42;4.22;;;;;;;9.72;100.00;100240.03;5029090;28;20494;-71
2023/12/12 10:32:57;;;;;;;16.70;3.80;;;;;;;9.76;100.00;100237.25;5026728;28;20041;-71
2023/12/12 10:35:28;;;;;;;18.67;4.25;;;;;;;9.80;100.00;100227.47;5042262;28;20049;-71
2023/12/12 10:37:57;;;;;;;18.50;4.13;;;;;;;9.84;100.00;100221.16;5027506;28;20061;-71
2023/12/12 10:40:25;;;;;;;19.27;4.25;;;;;;;9.89;100.00;100224.47;5028230;28;20045;-71
2023/12/12 10:42:55;;;;;;;23.38;9.85;;;;;;;9.97;100.00;100216.28;5024475;28;20041;-72
2023/12/12 10:45:26;;;;;;;20.95;4.82;;;;;;;10.01;100.00;100214.41;5026457;28;20049;-72
2023/12/12 10:47:59;;;;;;;21.25;8.82;;;;;;;10.05;100.00;100219.50;5040194;28;20100;-71
2023/12/12 10:50:31;;;;;;;16.30;3.97;;;;;;;10.13;100.00;100216.56;5027574;28;20524;-71
2023/12/12 10:53:03;;;;;;;17.40;4.40;;;;;;;10.19;100.00;100207.56;5027458;28;20038;-71
2023/12/12 10:55:32;;;;;;;15.60;3.47;;;;;;;10.29;100.00;100201.00;5026317;28;20132;-71
2023/12/12 10:58:03;;;;;;;23.02;10.10;;;;;;;10.38;100.00;100200.69;5025028;28;20128;-71
2023/12/12 11:00:31;;;;;;;30.95;15.45;;;;;;;10.45;100.00;100205.72;5024902;28;20034;-71
2023/12/12 11:02:59;;;;;;;17.35;4.88;;;;;;;10.52;100.00;100196.63;5041159;28;20045;-71
2023/12/12 11:05:27;;;;;;;15.80;3.83;;;;;;;10.63;100.00;100196.22;5027047;28;20049;-71
2023/12/12 11:07:57;;;;;;;16.33;3.70;;;;;;;10.75;100.00;100186.94;5028793;28;20129;-71
2023/12/12 11:10:25;;;;;;;14.00;4.70;;;;;;;10.92;100.00;100189.72;5027324;28;20041;-71
2023/12/12 11:12:57;;;;;;;14.05;3.55;;;;;;;11.06;100.00;100189.13;5026105;28;20082;-71
2023/12/12 11:15:27;;;;;;;14.50;4.40;;;;;;;11.22;100.00;100180.56;5026414;28;20042;-71